Time;durP1;ratioP1;P1;durP2;ratioP2;P2;SDS_P1;SDS_P2;PMS_P1;PMS_P2;Temp;Humidity;BMP_temperature;BMP_pressure;BME280_temperature;BME280_humidity;BME280_pressure;Samples;Min_cycle;Max_cycle;Signal;HPM_P1;HPM_P2
2022/04/07 00:01:29;;;;;;;10.60;5.28;;;;;;;21.98;50.34;96976.77;1809180;79;27394;-87
2022/04/07 00:03:55;;;;;;;8.68;5.37;;;;;;;21.97;50.36;96975.22;1809138;79;25631;-87
2022/04/07 00:06:22;;;;;;;10.93;5.62;;;;;;;21.94;50.37;96969.88;1809267;79;25410;-87
2022/04/07 00:08:49;;;;;;;9.10;5.22;;;;;;;21.93;50.39;96969.70;1809102;79;25390;-87
2022/04/07 00:11:16;;;;;;;10.38;5.83;;;;;;;21.93;50.44;96964.73;1808983;79;25761;-87
2022/04/07 00:13:42;;;;;;;9.68;5.62;;;;;;;21.93;50.42;96957.76;1809392;79;28021;-86
2022/04/07 00:16:08;;;;;;;9.45;5.28;;;;;;;21.92;50.42;96952.80;1809249;79;25568;-86
2022/04/07 00:18:35;;;;;;;9.63;5.42;;;;;;;21.90;50.44;96946.87;1808890;79;25532;-87
2022/04/07 00:21:11;;;;;;;9.25;5.28;;;;;;;21.88;50.48;96946.50;1809112;79;26040;-87
2022/04/07 00:23:29;;;;;;;9.70;5.33;;;;;;;21.86;50.53;96948.95;1807215;79;25536;-87
2022/04/07 00:25:55;;;;;;;9.90;5.08;;;;;;;21.86;50.53;96948.16;1809161;79;27430;-86
2022/04/07 00:28:22;;;;;;;9.25;5.37;;;;;;;21.85;50.55;96954.97;1808838;79;25753;-87
2022/04/07 00:30:49;;;;;;;10.30;5.58;;;;;;;21.83;50.61;96952.61;1809424;79;25389;-87
2022/04/07 00:33:15;;;;;;;10.00;5.28;;;;;;;21.83;50.61;96948.42;1808794;79;25691;-86
2022/04/07 00:35:41;;;;;;;8.45;5.00;;;;;;;21.84;50.63;96952.02;1809257;79;25607;-86
2022/04/07 00:38:08;;;;;;;8.68;5.40;;;;;;;21.81;50.63;96953.04;1809133;79;27393;-86
2022/04/07 00:40:34;;;;;;;9.13;5.12;;;;;;;21.82;50.62;96948.26;1808837;79;25626;-87
2022/04/07 00:43:00;;;;;;;10.30;5.53;;;;;;;21.83;50.63;96948.42;1809325;79;25444;-88
2022/04/07 00:45:26;;;;;;;9.08;5.00;;;;;;;21.83;50.64;96954.60;1809258;79;25651;-87
2022/04/07 00:47:52;;;;;;;9.50;5.25;;;;;;;21.82;50.62;96948.26;1809235;79;25558;-87
2022/04/07 00:50:21;;;;;;;9.05;5.35;;;;;;;21.80;50.65;96947.89;1809151;79;27340;-87
2022/04/07 00:52:55;;;;;;;9.80;5.20;;;;;;;21.79;50.70;96949.89;1809114;79;25814;-87
2022/04/07 00:55:22;;;;;;;9.70;5.35;;;;;;;21.79;50.69;96954.70;1808437;79;25580;-88
2022/04/07 00:57:48;;;;;;;9.10;5.15;;;;;;;21.78;50.70;96948.33;1809093;79;25691;-88
2022/04/07 01:00:15;;;;;;;8.38;5.15;;;;;;;21.77;50.72;96943.98;1809346;79;25564;-88
2022/04/07 01:02:41;;;;;;;10.20;5.45;;;;;;;21.76;50.73;96949.36;1809182;79;27464;-88
2022/04/07 01:05:09;;;;;;;8.68;4.90;;;;;;;21.75;50.74;96957.52;1808933;79;25828;-88
2022/04/07 01:07:37;;;;;;;9.45;5.25;;;;;;;21.76;50.75;96956.95;1809111;79;25730;-88
2022/04/07 01:10:07;;;;;;;8.88;4.85;;;;;;;21.74;50.74;96948.99;1809057;79;25760;-88
2022/04/07 01:12:34;;;;;;;9.03;4.97;;;;;;;21.73;50.76;96946.64;1809306;79;25603;-88
2022/04/07 01:15:04;;;;;;;8.70;5.08;;;;;;;21.72;50.78;96952.81;1808836;79;28305;-87
2022/04/07 01:17:31;;;;;;;8.63;5.30;;;;;;;21.72;50.79;96952.81;1808996;79;26052;-87
2022/04/07 01:19:57;;;;;;;8.50;5.15;;;;;;;21.72;50.79;96943.05;1809083;79;25706;-88
2022/04/07 01:22:24;;;;;;;8.08;4.95;;;;;;;21.70;50.83;96942.69;1809092;79;25379;-87
2022/04/07 01:24:50;;;;;;;9.85;4.95;;;;;;;21.70;50.81;96944.08;1809134;79;25715;-88
2022/04/07 01:27:19;;;;;;;7.75;4.83;;;;;;;21.71;50.81;96947.66;1809280;79;27391;-87
2022/04/07 01:29:45;;;;;;;8.88;5.03;;;;;;;21.68;50.85;96936.16;1809144;79;25772;-87
2022/04/07 01:32:26;;;;;;;8.25;4.95;;;;;;;21.68;50.87;96935.39;1809097;79;25417;-87
2022/04/07 01:34:52;;;;;;;8.85;4.97;;;;;;;21.67;50.87;96936.58;1809107;79;25534;-87
2022/04/07 01:37:19;;;;;;;7.83;4.83;;;;;;;21.66;50.89;96935.02;1809268;79;25413;-88
2022/04/07 01:39:47;;;;;;;8.88;4.62;;;;;;;21.64;50.91;96929.87;1809048;79;27363;-87
2022/04/07 01:42:15;;;;;;;8.28;4.95;;;;;;;21.64;50.91;96936.05;1809058;79;25409;-87
2022/04/07 01:44:46;;;;;;;8.68;4.72;;;;;;;21.64;50.93;96934.66;1809144;79;25584;-87
2022/04/07 01:47:15;;;;;;;8.83;4.87;;;;;;;21.62;50.96;96936.48;1809258;79;25770;-87
2022/04/07 01:49:44;;;;;;;7.22;4.45;;;;;;;21.63;50.98;96938.67;1809090;79;25576;-86
2022/04/07 01:52:13;;;;;;;8.45;4.85;;;;;;;21.63;50.96;96934.48;1809344;79;27367;-87
2022/04/07 01:54:42;;;;;;;8.98;4.87;;;;;;;21.62;50.99;96928.75;1808986;79;25759;-87
2022/04/07 01:57:10;;;;;;;8.83;4.92;;;;;;;21.60;50.99;96929.17;1786626;79;25488;-87
2022/04/07 01:59:37;;;;;;;8.70;4.62;;;;;;;21.62;51.00;96928.75;1786634;79;25814;-87
2022/04/07 02:02:04;;;;;;;8.90;4.90;;;;;;;21.60;51.01;96929.17;1809077;79;25623;-88
2022/04/07 02:04:29;;;;;;;7.80;4.60;;;;;;;21.59;51.02;96922.64;1808966;79;27363;-87
2022/04/07 02:06:56;;;;;;;8.13;4.72;;;;;;;21.58;51.06;96914.87;1809050;79;25807;-88
2022/04/07 02:09:21;;;;;;;7.08;4.50;;;;;;;21.56;51.06;96919.48;1809053;79;25425;-87
2022/04/07 02:11:47;;;;;;;7.15;4.60;;;;;;;21.56;51.08;96912.52;1808993;79;25651;-87
2022/04/07 02:14:13;;;;;;;7.03;4.80;;;;;;;21.56;51.08;96909.73;1809148;79;25453;-86
2022/04/07 02:16:39;;;;;;;8.40;4.92;;;;;;;21.55;51.08;96905.39;1809150;79;27356;-87
2022/04/07 02:19:06;;;;;;;7.70;4.65;;;;;;;21.55;51.08;96901.20;1809034;79;25589;-87
2022/04/07 02:21:32;;;;;;;7.90;4.62;;;;;;;21.55;51.11;96902.59;1809164;79;25781;-87
2022/04/07 02:23:59;;;;;;;7.62;4.40;;;;;;;21.54;51.11;96908.00;1808967;79;26209;-87
2022/04/07 02:26:25;;;;;;;8.73;4.67;;;;;;;21.53;51.12;96905.02;1809122;79;25576;-87
2022/04/07 02:28:51;;;;;;;7.15;4.12;;;;;;;21.53;51.12;96905.02;1809213;79;27952;-87
2022/04/07 02:31:17;;;;;;;7.97;4.28;;;;;;;21.53;51.14;96912.61;1808930;79;25452;-88
2022/04/07 02:33:44;;;;;;;7.97;4.42;;;;;;;21.53;51.13;96911.22;1809053;79;25631;-88
2022/04/07 02:36:10;;;;;;;7.37;4.45;;;;;;;21.52;51.18;96916.00;1808738;79;25464;-88
2022/04/07 02:38:37;;;;;;;7.75;4.62;;;;;;;21.51;51.19;96914.44;1809109;79;25711;-87
2022/04/07 02:41:04;;;;;;;7.62;4.47;;;;;;;21.52;51.18;96920.18;1808995;79;28229;-88
2022/04/07 02:43:30;;;;;;;7.97;4.58;;;;;;;21.52;51.19;96909.03;1808938;79;25445;-87
2022/04/07 02:45:56;;;;;;;6.97;4.00;;;;;;;21.52;51.20;96914.61;1809001;79;25746;-87
2022/04/07 02:48:22;;;;;;;8.40;4.87;;;;;;;21.51;51.22;96916.43;1808986;79;25663;-87
2022/04/07 02:50:47;;;;;;;7.42;4.22;;;;;;;21.52;51.22;96911.03;1809064;79;25496;-87
2022/04/07 02:53:14;;;;;;;7.47;4.50;;;;;;;21.50;51.22;96914.24;1809401;79;27390;-87
2022/04/07 02:55:40;;;;;;;8.08;4.47;;;;;;;21.50;51.21;96914.87;1809162;79;25674;-87
2022/04/07 02:58:07;;;;;;;8.40;4.90;;;;;;;21.49;51.24;96918.25;1809278;79;25639;-88
2022/04/07 03:00:33;;;;;;;7.50;4.55;;;;;;;21.48;51.25;96911.72;1809304;79;25988;-88
2022/04/07 03:02:59;;;;;;;8.55;4.90;;;;;;;21.49;51.26;96921.04;1809174;79;25676;-88
2022/04/07 03:05:25;;;;;;;10.20;5.67;;;;;;;21.49;51.25;96921.64;1809237;79;27359;-87
2022/04/07 03:07:51;;;;;;;10.95;5.83;;;;;;;21.48;51.26;96915.89;1809082;79;25655;-87
2022/04/07 03:10:17;;;;;;;9.65;5.45;;;;;;;21.47;51.26;96913.70;1809284;79;25622;-87
2022/04/07 03:12:43;;;;;;;8.85;5.42;;;;;;;21.47;51.28;96910.16;1809142;79;25639;-87
2022/04/07 03:15:09;;;;;;;10.50;5.95;;;;;;;21.46;51.31;96907.97;1809169;79;25585;-88
2022/04/07 03:17:35;;;;;;;10.18;6.20;;;;;;;21.46;51.31;96908.56;1809193;79;27408;-88
2022/04/07 03:20:02;;;;;;;11.05;6.20;;;;;;;21.45;51.32;96917.55;1809166;79;25849;-88
2022/04/07 03:22:28;;;;;;;10.30;5.78;;;;;;;21.44;51.31;96913.97;1809184;79;25456;-88
2022/04/07 03:24:54;;;;;;;10.80;6.00;;;;;;;21.43;51.34;96913.80;1809195;79;25691;-88
2022/04/07 03:27:20;;;;;;;10.38;5.90;;;;;;;21.43;51.35;96898.48;1809317;79;25571;-88
2022/04/07 03:29:46;;;;;;;11.30;6.40;;;;;;;21.42;51.35;96900.30;1809182;79;28113;-88
2022/04/07 03:32:12;;;;;;;11.73;6.00;;;;;;;21.42;51.33;96892.70;1809058;79;25691;-88
2022/04/07 03:34:38;;;;;;;10.18;5.72;;;;;;;21.42;51.35;96889.16;1809370;79;25671;-88
2022/04/07 03:37:05;;;;;;;11.70;6.40;;;;;;;21.42;51.36;96886.37;1809213;79;25425;-88
2022/04/07 03:39:33;;;;;;;10.58;5.80;;;;;;;21.41;51.38;96885.58;1809182;79;25386;-88
2022/04/07 03:42:00;;;;;;;10.28;5.90;;;;;;;21.42;51.38;96881.56;1809096;79;27288;-88
2022/04/07 03:44:26;;;;;;;10.00;5.47;;;;;;;21.41;51.36;96874.43;1809012;79;25422;-89
2022/04/07 03:46:52;;;;;;;10.10;5.42;;;;;;;21.39;51.39;96871.28;1809192;79;25580;-88
2022/04/07 03:49:20;;;;;;;10.53;5.50;;;;;;;21.40;51.38;96870.68;1809121;79;25761;-88
2022/04/07 03:51:46;;;;;;;10.90;5.92;;;;;;;21.40;51.37;96872.87;1808848;79;25393;-88
2022/04/07 03:54:13;;;;;;;10.20;5.95;;;;;;;21.40;51.38;96874.86;1809067;79;27367;-88
2022/04/07 03:56:39;;;;;;;10.45;5.80;;;;;;;21.38;51.39;96869.72;1808858;79;25894;-88
2022/04/07 03:59:05;;;;;;;10.95;5.90;;;;;;;21.38;51.39;96869.72;1786778;79;25697;-88
2022/04/07 04:01:32;;;;;;;10.68;5.70;;;;;;;21.38;51.40;96867.53;1809246;79;25721;-87
2022/04/07 04:03:58;;;;;;;10.45;5.53;;;;;;;21.38;51.43;96869.72;1808804;79;25458;-87
2022/04/07 04:06:24;;;;;;;10.55;5.50;;;;;;;21.38;51.43;96871.71;1809208;79;27575;-87
2022/04/07 04:08:50;;;;;;;10.68;6.03;;;;;;;21.38;51.43;96878.67;1809002;79;25911;-88
2022/04/07 04:11:16;;;;;;;11.00;5.90;;;;;;;21.40;51.43;96880.43;1809531;79;25397;-88
2022/04/07 04:13:42;;;;;;;10.25;5.65;;;;;;;21.38;51.43;96882.25;1809170;79;25651;-87
2022/04/07 04:16:08;;;;;;;11.38;5.95;;;;;;;21.38;51.44;96883.65;1809252;79;25698;-87
2022/04/07 04:18:35;;;;;;;10.85;6.20;;;;;;;21.36;51.45;96880.50;1809346;79;28250;-87
2022/04/07 04:21:01;;;;;;;11.08;5.40;;;;;;;21.36;51.45;96880.50;1808733;79;25627;-87
2022/04/07 04:23:27;;;;;;;10.63;5.62;;;;;;;21.36;51.45;96876.31;1809278;79;25572;-87
2022/04/07 04:25:53;;;;;;;11.70;5.78;;;;;;;21.35;51.42;96876.15;1809011;79;26180;-87
2022/04/07 04:28:19;;;;;;;11.40;5.60;;;;;;;21.35;51.46;96877.55;1809142;79;25634;-87
2022/04/07 04:30:45;;;;;;;9.90;5.47;;;;;;;21.35;51.46;96869.19;1809098;79;27413;-86
2022/04/07 04:33:11;;;;;;;10.45;6.25;;;;;;;21.37;51.46;96875.13;1809007;79;25573;-87
2022/04/07 04:35:37;;;;;;;10.48;5.67;;;;;;;21.35;51.47;96859.44;1809163;79;25410;-87
2022/04/07 04:38:04;;;;;;;11.28;5.70;;;;;;;21.36;51.45;96866.56;1809111;79;25623;-87
2022/04/07 04:40:30;;;;;;;10.45;5.37;;;;;;;21.35;51.47;96867.79;1809227;79;25623;-87
2022/04/07 04:42:56;;;;;;;10.08;5.75;;;;;;;21.35;51.47;96871.17;1809221;79;28109;-86
2022/04/07 04:45:21;;;;;;;10.63;5.92;;;;;;;21.35;51.47;96876.15;1808983;79;25695;-88
2022/04/07 04:47:49;;;;;;;9.58;5.40;;;;;;;21.35;51.48;96878.14;1809047;79;25743;-87
2022/04/07 04:50:15;;;;;;;9.83;5.70;;;;;;;21.36;51.49;96872.77;1808866;79;25663;-87
2022/04/07 04:52:41;;;;;;;10.30;5.83;;;;;;;21.34;51.48;96877.38;1809142;79;25628;-87
2022/04/07 04:55:08;;;;;;;11.08;5.70;;;;;;;21.34;51.49;96870.41;1809296;79;28137;-87
2022/04/07 04:57:34;;;;;;;11.97;6.10;;;;;;;21.35;51.50;96876.75;1809122;79;26015;-87
2022/04/07 05:00:00;;;;;;;10.03;5.60;;;;;;;21.34;51.50;96871.80;1809228;79;25446;-88
2022/04/07 05:02:26;;;;;;;10.93;5.58;;;;;;;21.35;51.51;96872.56;1809204;79;25646;-88
2022/04/07 05:04:52;;;;;;;11.33;6.00;;;;;;;21.34;51.51;96864.84;1809061;79;25644;-88
2022/04/07 05:07:18;;;;;;;9.98;5.62;;;;;;;21.35;51.51;96865.61;1809064;79;27430;-88
2022/04/07 05:09:45;;;;;;;11.10;6.00;;;;;;;21.36;51.50;96869.35;1809121;79;25584;-88
2022/04/07 05:12:11;;;;;;;9.20;5.50;;;;;;;21.34;51.54;96863.45;1808877;79;25572;-87
2022/04/07 05:14:37;;;;;;;8.95;5.40;;;;;;;21.34;51.55;96866.83;1809029;79;25391;-87
2022/04/07 05:17:04;;;;;;;9.85;5.10;;;;;;;21.33;51.57;96863.28;1809113;79;25567;-88
2022/04/07 05:19:30;;;;;;;9.30;5.53;;;;;;;21.34;51.56;96862.65;1809202;79;27414;-88
2022/04/07 05:21:56;;;;;;;9.63;5.42;;;;;;;21.35;51.57;96867.79;1809113;79;25591;-87
2022/04/07 05:24:22;;;;;;;9.98;5.47;;;;;;;21.36;51.57;96865.80;1809170;79;25556;-87
2022/04/07 05:26:48;;;;;;;9.60;5.42;;;;;;;21.35;51.57;96868.39;1809087;79;25770;-87
2022/04/07 05:29:14;;;;;;;8.65;5.53;;;;;;;21.35;51.58;96863.61;1809085;79;25608;-87
2022/04/07 05:31:39;;;;;;;10.65;5.72;;;;;;;21.38;51.59;96865.53;1809292;79;27954;-87
2022/04/07 05:34:06;;;;;;;10.55;5.15;;;;;;;21.38;51.66;96862.75;1809039;79;25627;-88
2022/04/07 05:36:32;;;;;;;9.35;5.80;;;;;;;21.37;51.63;96870.15;1809162;79;25477;-87
2022/04/07 05:38:58;;;;;;;9.90;5.28;;;;;;;21.38;51.66;96868.92;1809094;79;25587;-87
2022/04/07 05:41:24;;;;;;;9.05;5.12;;;;;;;21.37;51.69;96864.58;1809303;79;25382;-87
2022/04/07 05:43:50;;;;;;;10.90;5.80;;;;;;;21.37;51.69;96867.36;1809178;79;27394;-87
2022/04/07 05:46:16;;;;;;;9.08;5.00;;;;;;;21.39;51.69;96867.73;1809073;79;25456;-87
2022/04/07 05:48:42;;;;;;;10.88;5.62;;;;;;;21.40;51.71;96863.12;1809128;79;25570;-87
2022/04/07 05:51:08;;;;;;;10.90;5.62;;;;;;;21.40;51.71;96851.97;1809111;79;25635;-87
2022/04/07 05:53:34;;;;;;;10.55;5.50;;;;;;;21.44;51.70;96858.24;1809102;79;25592;-88
2022/04/07 05:56:00;;;;;;;9.08;4.97;;;;;;;21.44;51.71;96854.66;1809262;79;27521;-86
2022/04/07 05:58:27;;;;;;;9.08;5.28;;;;;;;21.45;51.71;96853.47;1809049;79;25454;-87
2022/04/07 06:00:53;;;;;;;10.82;5.62;;;;;;;21.44;51.72;96856.84;1808769;79;25615;-87
2022/04/07 06:03:19;;;;;;;9.35;5.40;;;;;;;21.46;51.72;96857.81;1808954;79;25722;-87
2022/04/07 06:05:45;;;;;;;8.50;5.17;;;;;;;21.47;51.72;96862.78;1809188;79;25687;-88
2022/04/07 06:08:11;;;;;;;8.53;4.72;;;;;;;21.47;51.78;96853.80;1809046;79;27291;-87
2022/04/07 06:10:37;;;;;;;9.23;5.33;;;;;;;21.47;51.84;96851.64;1809026;79;25462;-87
2022/04/07 06:13:04;;;;;;;9.03;5.08;;;;;;;21.47;51.80;96841.89;1809145;79;25671;-88
2022/04/07 06:15:30;;;;;;;9.75;5.12;;;;;;;21.44;51.88;96851.28;1808898;79;26380;-88
2022/04/07 06:17:56;;;;;;;9.65;5.20;;;;;;;21.44;51.87;96843.52;1809177;79;25631;-88
2022/04/07 06:20:23;;;;;;;8.88;5.00;;;;;;;21.44;51.96;96847.70;1808987;79;27359;-88
2022/04/07 06:22:49;;;;;;;9.13;4.95;;;;;;;21.45;52.00;96847.89;1808943;79;25482;-88
2022/04/07 06:25:15;;;;;;;9.55;5.15;;;;;;;21.46;52.01;96848.66;1809189;79;25450;-88
2022/04/07 06:27:44;;;;;;;9.05;4.75;;;;;;;21.44;52.02;96854.06;1809111;79;25578;-88
2022/04/07 06:30:18;;;;;;;8.20;4.72;;;;;;;21.47;52.05;96855.19;1809177;79;25624;-88
2022/04/07 06:32:46;;;;;;;9.98;5.37;;;;;;;21.48;52.06;96859.57;1809309;79;28060;-88
2022/04/07 06:35:15;;;;;;;7.40;4.75;;;;;;;21.50;52.01;96861.92;1809082;79;25635;-88
2022/04/07 06:37:55;;;;;;;8.98;5.00;;;;;;;21.50;51.99;96863.31;1809205;79;25402;-88
2022/04/07 06:40:29;;;;;;;;;;;;;;;21.49;52.10;96872.88;1811562;79;25632;-88
2022/04/07 06:42:58;;;;;;;8.63;4.87;;;;;;;21.49;52.26;96868.09;1809286;79;25671;-88
2022/04/07 06:45:27;;;;;;;8.65;4.85;;;;;;;21.48;52.30;96858.77;1809210;79;27344;-88
2022/04/07 06:47:53;;;;;;;8.55;5.00;;;;;;;21.47;52.36;96851.64;1809179;79;25450;-88
2022/04/07 06:50:21;;;;;;;9.53;5.42;;;;;;;21.48;52.54;96856.78;1809306;79;25620;-87
2022/04/07 06:52:47;;;;;;;8.40;5.00;;;;;;;21.50;52.72;96858.51;1809196;79;25730;-86
2022/04/07 06:55:16;;;;;;;10.63;5.45;;;;;;;21.53;52.73;96852.70;1809302;79;25607;-88
2022/04/07 06:57:55;;;;;;;10.32;5.78;;;;;;;21.56;52.60;96849.81;1809137;79;27336;-88
2022/04/07 07:00:25;;;;;;;11.18;5.75;;;;;;;21.62;52.61;96845.13;1809205;79;25556;-87
2022/04/07 07:02:54;;;;;;;10.78;5.80;;;;;;;21.64;52.54;96853.83;1808886;79;25583;-88
2022/04/07 07:05:26;;;;;;;11.55;6.08;;;;;;;21.67;52.41;96857.94;1809145;79;25608;-87
2022/04/07 07:07:53;;;;;;;14.38;6.17;;;;;;;21.71;52.26;96857.86;1809157;79;25704;-89
2022/04/07 07:10:22;;;;;;;10.10;5.92;;;;;;;21.76;52.07;96860.15;1786696;79;28280;-88
2022/04/07 07:12:53;;;;;;;11.73;6.05;;;;;;;21.81;51.92;96865.82;1809064;79;25980;-88
2022/04/07 07:15:23;;;;;;;12.43;6.47;;;;;;;21.84;51.84;96864.19;1809260;79;25679;-88
2022/04/07 07:17:51;;;;;;;13.58;7.10;;;;;;;21.86;51.77;96866.70;1809158;79;25440;-88
2022/04/07 07:20:20;;;;;;;12.37;6.35;;;;;;;21.88;51.67;96868.43;1808898;79;25592;-88
2022/04/07 07:22:47;;;;;;;14.25;7.20;;;;;;;21.91;51.65;96867.56;1808941;79;28291;-87
2022/04/07 07:25:14;;;;;;;13.35;6.72;;;;;;;21.93;51.57;96866.53;1809084;79;25777;-88
2022/04/07 07:27:46;;;;;;;13.72;6.75;;;;;;;21.96;51.50;96860.69;1808857;79;25607;-87
2022/04/07 07:30:16;;;;;;;16.37;7.17;;;;;;;21.97;51.44;96858.09;1809130;79;25548;-88
2022/04/07 07:32:45;;;;;;;14.85;7.78;;;;;;;21.99;51.42;96852.08;1809405;79;25610;-87
2022/04/07 07:35:12;;;;;;;15.40;7.75;;;;;;;22.01;51.38;96855.98;1809135;79;27643;-88
2022/04/07 07:37:54;;;;;;;17.80;8.05;;;;;;;22.05;51.39;96861.49;1808957;79;25599;-89
2022/04/07 07:40:24;;;;;;;15.13;7.70;;;;;;;22.07;51.37;96854.84;1809132;79;25592;-89
2022/04/07 07:42:57;;;;;;;20.88;8.00;;;;;;;22.09;51.44;96858.59;1809235;79;25615;-88
2022/04/07 07:45:26;;;;;;;19.37;7.92;;;;;;;22.12;51.43;96860.52;1808952;79;25545;-90
2022/04/07 07:47:55;;;;;;;16.27;8.13;;;;;;;22.12;51.45;96858.52;1808628;79;27384;-89
2022/04/07 07:50:22;;;;;;;17.32;8.38;;;;;;;22.12;51.46;96862.70;1809129;79;25502;-89
2022/04/07 07:52:50;;;;;;;20.32;8.15;;;;;;;22.13;51.49;96869.84;1809046;79;25441;-88
2022/04/07 07:55:16;;;;;;;17.60;8.30;;;;;;;22.13;51.46;96864.89;1809205;79;26127;-89
2022/04/07 07:57:43;;;;;;;20.25;8.55;;;;;;;22.15;51.47;96872.99;1809143;79;25747;-87
2022/04/07 08:00:14;;;;;;;17.37;8.70;;;;;;;22.16;51.45;96862.59;1809136;79;27292;-88
2022/04/07 08:02:40;;;;;;;20.75;9.00;;;;;;;22.17;51.42;96863.56;1808728;79;25572;-89
2022/04/07 08:05:07;;;;;;;18.75;8.73;;;;;;;22.18;51.33;96867.14;1809027;79;25448;-88
2022/04/07 08:07:38;;;;;;;19.80;8.80;;;;;;;22.18;51.40;96866.54;1809159;79;25998;-88
2022/04/07 08:10:06;;;;;;;21.27;8.30;;;;;;;22.17;51.39;96860.00;1809451;79;25706;-88
2022/04/07 08:12:32;;;;;;;20.70;9.15;;;;;;;22.17;51.39;96855.19;1809198;79;28168;-88
2022/04/07 08:14:58;;;;;;;17.80;7.97;;;;;;;22.19;51.38;96859.73;1809093;79;26275;-88
2022/04/07 08:17:24;;;;;;;17.17;8.00;;;;;;;22.20;51.39;96863.31;1809113;79;25675;-87
2022/04/07 08:19:51;;;;;;;18.10;8.03;;;;;;;22.22;51.35;96858.69;1809151;79;25619;-88
2022/04/07 08:22:17;;;;;;;19.73;9.00;;;;;;;22.23;51.30;96856.06;1809341;79;25533;-88
2022/04/07 08:24:43;;;;;;;15.38;8.13;;;;;;;22.22;51.23;96853.87;1809068;79;27560;-88
2022/04/07 08:27:09;;;;;;;19.07;8.10;;;;;;;22.24;51.14;96857.03;1809416;79;25620;-88
2022/04/07 08:29:35;;;;;;;14.55;7.58;;;;;;;22.25;51.05;96850.84;1809090;79;25662;-91
2022/04/07 08:32:02;;;;;;;16.42;7.58;;;;;;;22.27;50.95;96849.78;1809274;79;25587;-90
2022/04/07 08:34:29;;;;;;;15.35;8.00;;;;;;;22.29;50.91;96856.51;1809013;79;25412;-91
2022/04/07 08:36:55;;;;;;;15.50;7.47;;;;;;;22.31;50.88;96849.09;1809259;79;27934;-89
2022/04/07 08:39:21;;;;;;;17.50;7.80;;;;;;;22.36;50.88;96852.73;1809099;79;26057;-90
2022/04/07 08:41:48;;;;;;;16.42;7.30;;;;;;;22.39;50.97;96852.48;1809286;79;25821;-91
2022/04/07 08:44:17;;;;;;;23.90;8.05;;;;;;;22.41;50.92;96852.22;1809048;79;25635;-92
2022/04/07 08:46:53;;;;;;;22.02;8.25;;;;;;;22.43;51.57;96843.41;1808570;79;25548;-90
2022/04/07 08:49:22;;;;;;;19.48;7.78;;;;;;;22.43;52.32;96850.38;1809070;79;28355;-91
2022/04/07 08:51:52;;;;;;;17.92;7.83;;;;;;;22.43;52.65;96842.77;1809060;79;25937;-90
2022/04/07 08:54:21;;;;;;;21.00;8.13;;;;;;;22.45;53.21;96846.52;1809319;79;25434;-88
2022/04/07 08:56:48;;;;;;;20.62;7.90;;;;;;;22.45;53.97;96833.97;1808716;79;25647;-88
2022/04/07 08:59:15;;;;;;;18.12;7.00;;;;;;;22.46;55.05;96832.76;1809307;79;25628;-88
2022/04/07 09:01:43;;;;;;;14.15;7.25;;;;;;;22.48;55.17;96832.32;1809015;79;27343;-88
2022/04/07 09:04:13;;;;;;;17.00;7.03;;;;;;;22.51;55.11;96827.26;1808959;79;25656;-87
2022/04/07 09:06:41;;;;;;;18.85;8.03;;;;;;;22.52;55.58;96824.03;1808942;79;29936;-87
2022/04/07 09:09:18;;;;;;;20.12;7.62;;;;;;;22.53;55.36;96821.40;1809134;79;25623;-87
2022/04/07 09:11:45;;;;;;;19.20;6.90;;;;;;;22.55;55.77;96807.80;1808755;79;25449;-88
2022/04/07 09:14:12;;;;;;;14.07;6.55;;;;;;;22.57;55.62;96821.31;1809097;79;28188;-88
2022/04/07 09:16:40;;;;;;;17.20;6.70;;;;;;;22.56;55.57;96810.75;1808895;79;25679;-88
2022/04/07 09:19:08;;;;;;;16.60;6.72;;;;;;;22.59;55.77;96816.72;1809044;79;25674;-88
2022/04/07 09:21:35;;;;;;;13.55;6.65;;;;;;;22.60;55.75;96815.48;1787169;79;26064;-88
2022/04/07 09:24:07;;;;;;;14.60;6.85;;;;;;;22.62;55.66;96809.63;1786888;79;25404;-87
2022/04/07 09:26:43;;;;;;;12.25;6.10;;;;;;;22.64;55.76;96807.19;1808861;79;28217;-87
2022/04/07 09:29:15;;;;;;;14.18;6.60;;;;;;;22.66;55.68;96803.34;1808754;79;25995;-88
2022/04/07 09:31:53;;;;;;;14.10;6.10;;;;;;;22.67;55.61;96796.53;1808826;79;25691;-88
2022/04/07 09:34:32;;;;;;;14.73;6.22;;;;;;;22.68;55.63;96798.69;1809145;79;25639;-87
2022/04/07 09:37:06;;;;;;;14.85;6.28;;;;;;;22.67;55.69;96790.95;1809087;79;25648;-88
2022/04/07 09:39:34;;;;;;;12.25;5.75;;;;;;;22.69;55.78;96790.50;1809138;79;27152;-87
2022/04/07 09:42:20;;;;;;;13.78;6.65;;;;;;;22.71;55.65;96781.69;1808650;79;25788;-87
2022/04/07 09:44:56;;;;;;;12.90;5.80;;;;;;;22.71;55.59;96785.88;1808923;79;25746;-87
2022/04/07 09:47:22;;;;;;;11.33;5.47;;;;;;;22.70;55.61;96773.92;1808593;79;25434;-87
2022/04/07 09:49:49;;;;;;;14.10;6.10;;;;;;;22.72;55.60;96774.87;1809130;79;25612;-87
2022/04/07 09:52:21;;;;;;;12.82;5.62;;;;;;;22.72;55.50;96766.50;1808781;79;28354;-87
2022/04/07 09:54:52;;;;;;;12.10;5.75;;;;;;;22.72;55.42;96758.12;1807678;79;25995;-87
2022/04/07 09:57:21;;;;;;;;;;;;;;;22.73;55.33;96747.11;1811768;79;26146;-87
2022/04/07 09:59:48;;;;;;;13.25;4.85;;;;;;;22.73;55.30;96738.13;1809056;79;26166;-87
2022/04/07 10:02:17;;;;;;;11.05;5.60;;;;;;;22.75;55.16;96738.48;1809095;79;25455;-87
2022/04/07 10:04:44;;;;;;;11.97;5.17;;;;;;;22.75;55.09;96727.92;1809119;79;27516;-87
2022/04/07 10:07:12;;;;;;;11.57;5.15;;;;;;;22.78;55.03;96720.84;1809070;79;25592;-87
2022/04/07 10:09:42;;;;;;;9.93;4.90;;;;;;;22.78;54.93;96715.27;1808709;79;25664;-87
2022/04/07 10:12:10;;;;;;;9.73;5.00;;;;;;;22.81;54.86;96719.95;1809270;79;25602;-87
2022/04/07 10:14:38;;;;;;;11.28;5.08;;;;;;;22.81;54.78;96704.59;1808238;79;25710;-87
2022/04/07 10:17:06;;;;;;;10.75;5.15;;;;;;;22.82;54.73;96716.53;1809122;79;27477;-87
2022/04/07 10:19:56;;;;;;;10.18;5.03;;;;;;;22.82;54.66;96708.16;1786707;79;25615;-87
2022/04/07 10:22:39;;;;;;;9.00;5.10;;;;;;;22.83;54.62;96705.55;1808565;79;25923;-87
2022/04/07 10:25:07;;;;;;;9.03;4.92;;;;;;;22.84;54.54;96707.71;1809147;79;25624;-87
2022/04/07 10:27:47;;;;;;;9.18;5.00;;;;;;;22.85;54.49;96708.66;1808984;79;25667;-87
2022/04/07 10:30:16;;;;;;;11.20;4.90;;;;;;;22.83;54.42;96691.59;1808496;79;27373;-87
2022/04/07 10:32:58;;;;;;;8.03;4.35;;;;;;;22.84;54.40;96694.55;1808967;79;25443;-87
2022/04/07 10:35:38;;;;;;;10.20;4.87;;;;;;;22.84;54.36;96686.77;1808608;79;25692;-87
2022/04/07 10:38:07;;;;;;;8.30;4.62;;;;;;;22.83;54.32;96687.41;1808783;79;25674;-87
2022/04/07 10:40:50;;;;;;;10.70;4.70;;;;;;;22.83;54.29;96685.21;1809045;79;25367;-87
2022/04/07 10:43:25;;;;;;;8.93;4.45;;;;;;;22.81;54.27;96675.88;1808852;79;27388;-87
2022/04/07 10:46:08;;;;;;;8.93;4.65;;;;;;;22.81;54.23;96674.48;1808661;79;25644;-87
2022/04/07 10:49:06;;;;;;;8.85;4.83;;;;;;;22.80;54.19;96672.30;1803214;79;25639;-87
2022/04/07 10:51:48;;;;;;;8.00;4.50;;;;;;;22.80;54.15;96667.34;1809152;79;25592;-86
2022/04/07 10:54:15;;;;;;;7.67;4.30;;;;;;;22.78;54.16;96664.21;1808827;79;25404;-86
2022/04/07 10:56:56;;;;;;;8.53;4.40;;;;;;;22.76;54.14;96664.66;1808715;79;27388;-86
2022/04/07 10:59:28;;;;;;;7.97;3.85;;;;;;;22.75;54.14;96658.91;1808669;79;25657;-86
2022/04/07 11:02:06;;;;;;;8.40;4.55;;;;;;;22.75;54.09;96653.33;1809004;79;25398;-86
2022/04/07 11:04:40;;;;;;;8.60;4.40;;;;;;;22.75;54.08;96650.53;1808996;79;25655;-86
2022/04/07 11:07:11;;;;;;;7.78;4.08;;;;;;;22.75;54.04;96661.70;1809065;79;25446;-86
2022/04/07 11:09:54;;;;;;;7.33;3.60;;;;;;;22.75;53.98;96657.52;1808674;79;27615;-86
2022/04/07 11:12:31;;;;;;;7.35;3.75;;;;;;;22.75;53.98;96649.75;1809226;79;25770;-86
2022/04/07 11:15:09;;;;;;;7.72;4.10;;;;;;;22.73;53.97;96634.05;1808846;79;25688;-86
2022/04/07 11:17:46;;;;;;;7.17;3.65;;;;;;;22.74;53.91;96635.62;1809257;79;25390;-86
2022/04/07 11:20:25;;;;;;;5.37;3.50;;;;;;;22.71;53.91;96627.51;1809319;79;25395;-86
2022/04/07 11:23:14;;;;;;;6.97;3.92;;;;;;;22.68;53.92;96622.81;1808808;79;27450;-85
2022/04/07 11:25:37;;;;;;;6.37;3.35;;;;;;;22.67;53.89;96622.05;1807053;79;25406;-86
2022/04/07 11:28:20;;;;;;;7.72;4.10;;;;;;;22.66;53.87;96612.13;1809133;79;25616;-86
2022/04/07 11:30:53;;;;;;;7.67;4.00;;;;;;;22.65;53.83;96607.75;1808865;79;25437;-86
2022/04/07 11:33:27;;;;;;;6.83;3.52;;;;;;;22.65;53.82;96610.55;1809282;79;25644;-86
2022/04/07 11:36:07;;;;;;;6.35;3.47;;;;;;;22.63;53.79;96602.45;1808885;79;28226;-86